Terminal Aerodrome Forecast
Issued by NWS Atlanta, GA

Current Version | Previous Version | Text Only | Print | Product List | Glossary On
Versions: 1 2 3 4 5 6 7 8 9 10 11 12 13
000
FTUS42 KFFC 180605 RRA
TAFMCN
TAF
KMCN 180605Z 1806/1906 30004KT P6SM FEW250
     FM181200 29003KT P6SM SCT150 BKN250
     FM181900 30005KT P6SM BKN060
     FM190100 31004KT P6SM SCT080 BKN150=

USA.gov is the U.S. government's official web portal to all federal, state and local government web resources and services.